createdAt,value
2022-08-26T00:01:44.915Z,12.50
2022-08-26T00:04:12.723Z,12.30
2022-08-26T00:06:42.645Z,12.30
2022-08-26T00:09:13.609Z,12.20
2022-08-26T00:11:43.480Z,12.30
2022-08-26T00:14:10.386Z,12.30
2022-08-26T00:16:37.258Z,12.30
2022-08-26T00:19:08.116Z,12.30
2022-08-26T00:21:35.280Z,12.40
2022-08-26T00:24:04.566Z,12.40
2022-08-26T00:26:33.797Z,12.50
2022-08-26T00:29:00.707Z,12.50
2022-08-26T00:31:27.647Z,12.60
2022-08-26T00:33:55.720Z,12.50
2022-08-26T00:36:22.873Z,12.50
2022-08-26T00:38:49.819Z,12.50
2022-08-26T00:41:18.902Z,12.50
2022-08-26T00:43:47.958Z,12.50
2022-08-26T00:46:17.312Z,12.50
2022-08-26T00:48:47.281Z,12.60
2022-08-26T00:51:17.907Z,12.70
2022-08-26T00:53:50.659Z,12.70
2022-08-26T00:56:20.780Z,12.70
2022-08-26T00:58:48.256Z,12.70
2022-08-26T01:01:15.967Z,12.60
2022-08-26T01:03:43.454Z,12.60
2022-08-26T01:06:12.525Z,12.50
2022-08-26T01:08:40.413Z,12.40
2022-08-26T01:11:08.193Z,12.40
2022-08-26T01:13:36.442Z,12.40
2022-08-26T01:16:05.486Z,12.20
2022-08-26T01:18:33.452Z,12.10
2022-08-26T01:21:15.615Z,12.00
2022-08-26T01:23:47.580Z,12.00
2022-08-26T01:26:20.200Z,11.90
2022-08-26T01:28:48.861Z,11.90
2022-08-26T01:31:20.752Z,11.80
2022-08-26T01:33:47.552Z,11.80
2022-08-26T01:36:15.286Z,11.80
2022-08-26T01:38:43.203Z,11.80
2022-08-26T01:41:16.398Z,11.90
2022-08-26T01:43:48.395Z,11.90
2022-08-26T01:46:16.071Z,12.00
2022-08-26T01:48:43.917Z,12.10
2022-08-26T01:51:11.888Z,12.00
2022-08-26T01:53:39.106Z,12.00
2022-08-26T01:56:10.215Z,11.90
2022-08-26T01:58:42.844Z,11.80
2022-08-26T02:01:10.341Z,11.60
2022-08-26T02:03:43.412Z,11.50
2022-08-26T02:06:10.678Z,11.40
2022-08-26T02:08:41.943Z,11.30
2022-08-26T02:11:08.744Z,11.20
2022-08-26T02:13:38.665Z,11.10
2022-08-26T02:16:08.427Z,11.10
2022-08-26T02:18:37.153Z,10.90
2022-08-26T02:21:06.709Z,10.90
2022-08-26T02:23:33.832Z,10.90
2022-08-26T02:26:07.487Z,10.80
2022-08-26T02:28:37.338Z,10.80
2022-08-26T02:31:04.368Z,10.90
2022-08-26T02:33:31.666Z,10.90
2022-08-26T02:35:59.329Z,11.10
2022-08-26T02:38:26.174Z,11.10
2022-08-26T02:40:52.956Z,11.10
2022-08-26T02:43:19.804Z,11.10
2022-08-26T02:46:00.817Z,11.10
2022-08-26T02:48:28.930Z,10.90
2022-08-26T02:50:55.707Z,11.00
2022-08-26T02:53:25.490Z,10.90
2022-08-26T02:55:52.667Z,11.00
2022-08-26T02:58:19.559Z,10.90
2022-08-26T03:00:52.776Z,10.90
2022-08-26T03:03:20.833Z,10.80
2022-08-26T03:05:50.576Z,10.80
2022-08-26T03:08:17.572Z,10.80
2022-08-26T03:10:44.381Z,10.70
2022-08-26T03:13:11.180Z,10.60
2022-08-26T03:15:37.949Z,10.40
2022-08-26T03:18:05.416Z,10.30
2022-08-26T03:20:34.326Z,10.30
2022-08-26T03:23:01.499Z,10.30
2022-08-26T03:25:28.780Z,10.40
2022-08-26T03:27:55.607Z,10.40
2022-08-26T03:30:44.633Z,10.40
2022-08-26T03:33:12.917Z,10.50
2022-08-26T03:35:40.769Z,10.50
2022-08-26T03:38:08.454Z,10.50
2022-08-26T03:40:36.670Z,10.50
2022-08-26T03:43:04.720Z,10.40
2022-08-26T03:45:31.594Z,10.40
2022-08-26T03:47:58.590Z,10.20
2022-08-26T03:50:25.753Z,10.20
2022-08-26T03:52:54.103Z,10.10
2022-08-26T03:55:23.731Z,10.10
2022-08-26T03:57:51.078Z,10.00
2022-08-26T04:00:18.487Z,10.10
2022-08-26T04:02:46.471Z,10.10
2022-08-26T04:05:14.464Z,10.10
2022-08-26T04:07:42.798Z,10.10
2022-08-26T04:10:11.243Z,10.10
2022-08-26T04:12:38.891Z,10.10
2022-08-26T04:15:07.010Z,10.10
2022-08-26T04:17:33.952Z,10.00
2022-08-26T04:20:00.822Z,10.10
2022-08-26T04:22:27.667Z,10.20
2022-08-26T04:24:56.231Z,10.20
2022-08-26T04:27:23.258Z,10.30
2022-08-26T04:29:55.158Z,10.30
2022-08-26T04:32:22.383Z,10.40
2022-08-26T04:34:49.339Z,10.50
2022-08-26T04:37:16.517Z,10.60
2022-08-26T04:39:44.698Z,10.70
2022-08-26T04:42:13.502Z,10.80
2022-08-26T04:44:41.208Z,10.80
2022-08-26T04:47:08.025Z,10.90
2022-08-26T04:49:36.007Z,11.00
2022-08-26T04:52:04.010Z,11.00
2022-08-26T04:54:32.967Z,11.00
2022-08-26T04:56:59.819Z,11.00
2022-08-26T04:59:26.634Z,11.00
2022-08-26T05:01:57.499Z,11.10
2022-08-26T05:04:24.538Z,11.20
2022-08-26T05:06:54.058Z,11.30
2022-08-26T05:09:23.796Z,11.30
2022-08-26T05:11:52.402Z,11.40
2022-08-26T05:14:22.371Z,11.40
2022-08-26T05:16:51.987Z,11.50
2022-08-26T05:19:19.471Z,11.60
2022-08-26T05:21:47.853Z,11.70
2022-08-26T05:24:15.418Z,11.80
2022-08-26T05:26:42.553Z,11.80
2022-08-26T05:29:11.649Z,11.90
2022-08-26T05:31:38.552Z,12.00
2022-08-26T05:34:06.012Z,12.00
2022-08-26T05:36:35.077Z,12.10
2022-08-26T05:39:02.890Z,12.20
2022-08-26T05:41:34.536Z,12.20
2022-08-26T05:44:04.047Z,12.30
2022-08-26T05:46:31.774Z,12.40
2022-08-26T05:48:58.626Z,12.50
2022-08-26T05:51:26.353Z,12.50
2022-08-26T05:53:54.770Z,12.70
2022-08-26T05:56:26.165Z,12.70
2022-08-26T05:58:53.936Z,12.80
2022-08-26T06:01:28.076Z,12.90
2022-08-26T06:03:56.889Z,13.00
2022-08-26T06:06:29.221Z,13.20
2022-08-26T06:08:59.168Z,13.30
2022-08-26T06:11:27.303Z,13.40
2022-08-26T06:13:54.592Z,13.60
2022-08-26T06:16:23.559Z,13.70
2022-08-26T06:18:52.099Z,13.80
2022-08-26T06:21:20.394Z,13.90
2022-08-26T06:24:06.960Z,14.00
2022-08-26T06:26:35.412Z,14.20
2022-08-26T06:29:03.981Z,14.30
2022-08-26T06:31:32.403Z,14.50
2022-08-26T06:33:59.919Z,14.60
2022-08-26T06:36:28.738Z,14.70
2022-08-26T06:38:56.051Z,14.80
2022-08-26T06:41:23.213Z,15.00
2022-08-26T06:43:50.353Z,15.30
2022-08-26T06:46:19.034Z,15.60
2022-08-26T06:48:46.261Z,15.80
2022-08-26T06:51:17.651Z,16.10
2022-08-26T06:53:46.960Z,16.40
2022-08-26T06:56:16.836Z,16.50
2022-08-26T06:58:43.692Z,16.70
2022-08-26T07:01:20.935Z,16.80
2022-08-26T07:03:48.850Z,17.00
2022-08-26T07:06:18.592Z,17.20
2022-08-26T07:08:46.189Z,17.20
2022-08-26T07:11:14.291Z,17.40
2022-08-26T07:13:41.270Z,17.50
2022-08-26T07:16:12.568Z,17.70
2022-08-26T07:18:42.044Z,17.80
2022-08-26T07:21:13.502Z,17.90
2022-08-26T07:23:41.467Z,18.00
2022-08-26T07:26:10.810Z,18.20
2022-08-26T07:28:38.289Z,18.20
2022-08-26T07:31:05.865Z,18.30
2022-08-26T07:33:37.182Z,18.40
2022-08-26T07:36:04.467Z,18.50
2022-08-26T07:38:33.947Z,18.60
2022-08-26T07:41:01.961Z,18.80
2022-08-26T07:43:29.348Z,18.80
2022-08-26T07:45:56.284Z,18.90
2022-08-26T07:48:23.317Z,18.90
2022-08-26T07:50:50.851Z,19.00
2022-08-26T07:53:21.488Z,19.10
2022-08-26T07:55:51.163Z,19.10
2022-08-26T07:58:19.378Z,19.20
2022-08-26T08:00:46.379Z,19.20
2022-08-26T08:03:14.973Z,19.30
2022-08-26T08:05:42.251Z,19.30
2022-08-26T08:08:19.735Z,19.30
2022-08-26T08:10:55.556Z,19.40
2022-08-26T08:13:22.787Z,19.40
2022-08-26T08:15:50.782Z,19.40
2022-08-26T08:18:20.562Z,19.40
2022-08-26T08:20:59.231Z,19.50
2022-08-26T08:23:32.286Z,19.50
2022-08-26T08:26:03.156Z,19.50
2022-08-26T08:28:31.305Z,19.60
2022-08-26T08:30:58.302Z,19.60
2022-08-26T08:33:26.494Z,19.70
2022-08-26T08:35:53.346Z,19.70
2022-08-26T08:38:20.168Z,19.70
2022-08-26T08:40:47.053Z,19.80
2022-08-26T08:43:31.186Z,19.80
2022-08-26T08:46:07.831Z,19.90
2022-08-26T08:48:39.412Z,19.90
2022-08-26T08:51:25.056Z,20.00
2022-08-26T08:53:54.776Z,20.10
2022-08-26T08:56:40.760Z,20.20
2022-08-26T08:59:21.784Z,20.30
2022-08-26T09:01:52.423Z,20.30
2022-08-26T09:04:39.460Z,20.30
2022-08-26T09:07:10.624Z,20.30
2022-08-26T09:09:42.114Z,20.40
2022-08-26T09:12:20.675Z,20.50
2022-08-26T09:15:02.380Z,20.40
2022-08-26T09:17:36.721Z,20.30
2022-08-26T09:20:27.424Z,20.30
2022-08-26T09:22:56.473Z,20.30
2022-08-26T09:25:25.944Z,20.30
2022-08-26T09:27:53.624Z,20.30
2022-08-26T09:30:26.701Z,20.40
2022-08-26T09:33:10.844Z,20.40
2022-08-26T09:35:51.545Z,20.30
2022-08-26T09:38:26.562Z,20.40
2022-08-26T09:41:00.857Z,20.40
2022-08-26T09:43:29.119Z,20.40
2022-08-26T09:46:10.337Z,20.50
2022-08-26T09:48:45.738Z,20.50
2022-08-26T09:51:26.464Z,20.60
2022-08-26T09:53:57.984Z,20.70
2022-08-26T09:56:27.539Z,20.70
2022-08-26T09:58:55.038Z,20.70
2022-08-26T10:01:30.151Z,20.70
2022-08-26T10:04:05.110Z,20.70
2022-08-26T10:06:36.738Z,20.80
2022-08-26T10:09:08.956Z,20.80
2022-08-26T10:11:48.954Z,20.80
2022-08-26T10:14:20.258Z,20.80
2022-08-26T10:16:50.431Z,20.80
2022-08-26T10:19:20.889Z,20.90
2022-08-26T10:21:55.099Z,20.90
2022-08-26T10:24:42.168Z,20.80
2022-08-26T10:27:33.077Z,20.90
2022-08-26T10:30:13.452Z,20.90
2022-08-26T10:32:49.296Z,21.00
2022-08-26T10:35:17.587Z,21.00
2022-08-26T10:38:04.856Z,21.00
2022-08-26T10:40:44.512Z,21.10
2022-08-26T10:43:18.203Z,21.10
2022-08-26T10:45:50.591Z,21.10
2022-08-26T10:48:21.307Z,21.10
2022-08-26T10:50:49.203Z,21.10
2022-08-26T10:53:15.985Z,21.10
2022-08-26T10:55:48.797Z,21.00
2022-08-26T10:58:26.514Z,21.00
2022-08-26T11:01:17.863Z,21.00
2022-08-26T11:03:57.939Z,21.00
2022-08-26T11:06:27.575Z,21.10
2022-08-26T11:08:58.827Z,21.10
2022-08-26T11:11:42.030Z,21.10
2022-08-26T11:14:53.124Z,21.00
2022-08-26T11:17:40.752Z,21.10
2022-08-26T11:20:13.410Z,21.20
2022-08-26T11:22:47.668Z,21.20
2022-08-26T11:25:19.192Z,21.20
2022-08-26T11:27:57.298Z,21.20
2022-08-26T11:30:25.181Z,21.20
2022-08-26T11:32:54.578Z,21.20
2022-08-26T11:35:21.814Z,21.30
2022-08-26T11:37:48.641Z,21.30
2022-08-26T11:40:20.816Z,21.30
2022-08-26T11:42:50.586Z,21.30
2022-08-26T11:45:37.727Z,21.30
2022-08-26T11:48:20.040Z,21.40
2022-08-26T11:50:53.962Z,21.40
2022-08-26T11:53:21.245Z,21.40
2022-08-26T11:55:51.446Z,21.40
2022-08-26T11:58:20.789Z,21.40
2022-08-26T12:00:52.269Z,21.40
2022-08-26T12:03:20.934Z,21.50
2022-08-26T12:05:51.248Z,21.50
2022-08-26T12:08:19.375Z,21.50
2022-08-26T12:10:46.202Z,21.50
2022-08-26T12:13:23.371Z,21.50
2022-08-26T12:15:56.028Z,21.50
2022-08-26T12:18:30.109Z,21.50
2022-08-26T12:21:01.640Z,21.60
2022-08-26T12:23:34.230Z,21.60
2022-08-26T12:26:08.966Z,21.60
2022-08-26T12:28:44.731Z,21.60
2022-08-26T12:31:11.748Z,21.50
2022-08-26T12:33:38.929Z,21.60
2022-08-26T12:36:06.116Z,21.60
2022-08-26T12:38:35.237Z,21.60
2022-08-26T12:41:02.083Z,21.70
2022-08-26T12:43:42.974Z,21.60
2022-08-26T12:46:13.826Z,21.70
2022-08-26T12:48:42.762Z,21.70
2022-08-26T12:51:17.779Z,21.70
2022-08-26T12:53:44.591Z,21.70
2022-08-26T12:56:19.200Z,21.60
2022-08-26T12:58:59.851Z,21.70
2022-08-26T13:01:26.740Z,21.60
2022-08-26T13:03:53.602Z,21.60
2022-08-26T13:06:23.519Z,21.50
2022-08-26T13:08:54.376Z,21.50
2022-08-26T13:11:21.145Z,21.50
2022-08-26T13:13:51.894Z,21.50
2022-08-26T13:16:21.120Z,21.40
2022-08-26T13:18:48.808Z,21.40
2022-08-26T13:21:25.999Z,21.40
2022-08-26T13:23:52.869Z,21.30
2022-08-26T13:26:20.350Z,21.30
2022-08-26T13:28:47.717Z,21.40
2022-08-26T13:31:29.658Z,21.40
2022-08-26T13:33:57.196Z,21.40
2022-08-26T13:36:24.438Z,21.40
2022-08-26T13:38:52.043Z,21.40
2022-08-26T13:41:19.334Z,21.50
2022-08-26T13:43:56.699Z,21.50
2022-08-26T13:46:28.334Z,21.60
2022-08-26T13:48:56.159Z,21.60
2022-08-26T13:51:23.439Z,21.60
2022-08-26T13:53:50.530Z,21.60
2022-08-26T13:56:18.931Z,21.50
2022-08-26T13:58:46.190Z,21.50
2022-08-26T14:01:13.352Z,21.40
2022-08-26T14:03:40.341Z,21.30
2022-08-26T14:06:07.205Z,21.30
2022-08-26T14:08:34.347Z,21.20
2022-08-26T14:11:01.158Z,21.20
2022-08-26T14:13:28.172Z,21.10
2022-08-26T14:16:01.642Z,21.20
2022-08-26T14:18:30.021Z,21.10
2022-08-26T14:20:57.130Z,21.00
2022-08-26T14:23:24.130Z,21.00
2022-08-26T14:25:51.502Z,21.00
2022-08-26T14:28:18.446Z,20.90
2022-08-26T14:30:50.364Z,20.90
2022-08-26T14:33:17.967Z,20.90
2022-08-26T14:35:47.972Z,20.90
2022-08-26T14:38:20.893Z,20.90
2022-08-26T14:40:48.897Z,21.00
2022-08-26T14:43:17.544Z,21.10
2022-08-26T14:45:45.227Z,21.20
2022-08-26T14:48:12.341Z,21.20
2022-08-26T14:50:39.338Z,21.30
2022-08-26T14:53:28.101Z,21.40
2022-08-26T14:56:04.366Z,21.60
2022-08-26T14:58:35.003Z,21.80
2022-08-26T15:01:04.354Z,21.90
2022-08-26T15:03:31.368Z,21.90
2022-08-26T15:05:58.209Z,22.00
2022-08-26T15:08:25.457Z,22.10
2022-08-26T15:10:52.299Z,22.20
2022-08-26T15:13:20.012Z,22.20
2022-08-26T15:15:47.036Z,22.10
2022-08-26T15:18:13.979Z,22.00
2022-08-26T15:20:40.938Z,21.90
2022-08-26T15:23:08.092Z,21.80
2022-08-26T15:25:35.167Z,21.70
2022-08-26T15:28:08.304Z,21.70
2022-08-26T15:30:35.296Z,21.80
2022-08-26T15:33:02.184Z,21.60
2022-08-26T15:35:29.053Z,21.50
2022-08-26T15:37:59.866Z,21.40
2022-08-26T15:40:27.004Z,21.20
2022-08-26T15:43:01.263Z,21.20
2022-08-26T15:45:38.444Z,21.20
2022-08-26T15:48:05.309Z,21.30
2022-08-26T15:50:32.192Z,21.30
2022-08-26T15:53:01.451Z,21.10
2022-08-26T15:55:28.534Z,21.10
2022-08-26T15:57:55.757Z,21.00
2022-08-26T16:00:23.666Z,20.80
2022-08-26T16:02:50.499Z,20.80
2022-08-26T16:05:18.752Z,20.80
2022-08-26T16:07:45.618Z,20.70
2022-08-26T16:10:12.403Z,20.60
2022-08-26T16:12:40.796Z,20.60
2022-08-26T16:15:08.016Z,20.60
2022-08-26T16:17:35.266Z,20.50
2022-08-26T16:20:02.621Z,20.40
2022-08-26T16:22:30.313Z,20.30
2022-08-26T16:25:00.097Z,20.40
2022-08-26T16:27:27.349Z,20.40
2022-08-26T16:29:54.224Z,20.30
2022-08-26T16:32:21.028Z,20.40
2022-08-26T16:34:55.212Z,20.50
2022-08-26T16:37:23.307Z,20.40
2022-08-26T16:39:50.160Z,20.20
2022-08-26T16:42:17.010Z,20.20
2022-08-26T16:44:46.811Z,20.00
2022-08-26T16:47:14.601Z,19.80
2022-08-26T16:49:41.928Z,19.80
2022-08-26T16:52:09.360Z,19.80
2022-08-26T16:54:36.278Z,19.80
2022-08-26T16:57:03.074Z,19.80
2022-08-26T16:59:31.583Z,19.70
2022-08-26T17:01:58.501Z,19.70
2022-08-26T17:04:25.332Z,19.70
2022-08-26T17:06:52.143Z,19.70
2022-08-26T17:09:19.054Z,19.70
2022-08-26T17:11:45.957Z,19.60
2022-08-26T17:14:13.345Z,19.60
2022-08-26T17:16:40.167Z,19.60
2022-08-26T17:19:07.025Z,19.60
2022-08-26T17:21:35.016Z,19.60
2022-08-26T17:24:02.257Z,19.60
2022-08-26T17:26:29.275Z,19.60
2022-08-26T17:28:56.110Z,19.60
2022-08-26T17:31:23.413Z,19.60
2022-08-26T17:33:53.342Z,19.60
2022-08-26T17:36:21.326Z,19.50
2022-08-26T17:38:49.304Z,19.60
2022-08-26T17:41:19.296Z,19.60
2022-08-26T17:43:46.206Z,19.60
2022-08-26T17:46:13.072Z,19.60
2022-08-26T17:48:40.646Z,19.70
2022-08-26T17:51:15.543Z,19.70
2022-08-26T17:53:42.848Z,19.70
2022-08-26T17:56:11.313Z,19.70
2022-08-26T17:58:38.206Z,19.70
2022-08-26T18:01:06.070Z,19.70
2022-08-26T18:03:33.439Z,19.70
2022-08-26T18:06:00.246Z,19.60
2022-08-26T18:08:27.063Z,19.70
2022-08-26T18:10:53.881Z,19.60
2022-08-26T18:13:20.634Z,19.60
2022-08-26T18:15:47.564Z,19.60
2022-08-26T18:18:14.994Z,19.60
2022-08-26T18:20:43.165Z,19.60
2022-08-26T18:23:10.454Z,19.60
2022-08-26T18:25:41.694Z,19.50
2022-08-26T18:28:08.695Z,19.60
2022-08-26T18:30:35.630Z,19.60
2022-08-26T18:33:02.580Z,19.60
2022-08-26T18:35:30.444Z,19.50
2022-08-26T18:37:57.607Z,19.60
2022-08-26T18:40:28.295Z,19.60
2022-08-26T18:42:55.146Z,19.70
2022-08-26T18:45:22.153Z,19.70
2022-08-26T18:47:48.972Z,19.70
2022-08-26T18:50:15.834Z,19.70
2022-08-26T18:52:43.465Z,19.60
2022-08-26T18:55:10.564Z,19.60
2022-08-26T18:57:37.387Z,19.60
2022-08-26T19:00:05.526Z,19.70
2022-08-26T19:02:33.244Z,19.70
2022-08-26T19:05:00.290Z,19.70
2022-08-26T19:07:27.065Z,19.70
2022-08-26T19:09:54.238Z,19.70
2022-08-26T19:12:21.324Z,19.70
2022-08-26T19:14:48.128Z,19.70
2022-08-26T19:17:15.285Z,19.70
2022-08-26T19:19:42.109Z,19.70
2022-08-26T19:22:08.916Z,19.70
2022-08-26T19:24:35.853Z,19.70
2022-08-26T19:27:02.861Z,19.70
2022-08-26T19:29:31.646Z,19.70
2022-08-26T19:31:58.934Z,19.80
2022-08-26T19:34:26.358Z,19.80
2022-08-26T19:36:54.181Z,19.80
2022-08-26T19:39:21.298Z,19.80
2022-08-26T19:41:48.585Z,19.80
2022-08-26T19:44:35.416Z,19.90
2022-08-26T19:47:03.656Z,19.90
2022-08-26T19:49:30.922Z,19.90
2022-08-26T19:51:58.314Z,20.00
2022-08-26T19:54:25.557Z,20.00
2022-08-26T19:56:52.394Z,20.00
2022-08-26T19:59:19.275Z,20.00
2022-08-26T20:01:46.609Z,20.00
2022-08-26T20:04:27.705Z,20.00
2022-08-26T20:06:57.578Z,20.00
2022-08-26T20:09:27.682Z,20.00
2022-08-26T20:11:56.844Z,20.00
2022-08-26T20:14:24.581Z,20.00
2022-08-26T20:16:51.563Z,20.00
2022-08-26T20:19:37.750Z,20.00
2022-08-26T20:22:05.260Z,20.00
2022-08-26T20:24:32.674Z,20.00
2022-08-26T20:27:01.532Z,20.00
2022-08-26T20:29:31.210Z,20.10
2022-08-26T20:31:58.856Z,20.10
2022-08-26T20:34:26.388Z,20.10
2022-08-26T20:36:53.233Z,20.10
2022-08-26T20:39:23.472Z,20.10
2022-08-26T20:41:50.440Z,20.10
2022-08-26T20:44:17.868Z,20.10
2022-08-26T20:46:45.023Z,20.00
2022-08-26T20:49:13.349Z,20.00
2022-08-26T20:51:40.861Z,20.00
2022-08-26T20:54:07.838Z,20.00
2022-08-26T20:56:35.191Z,20.00
2022-08-26T20:59:02.578Z,20.10
2022-08-26T21:01:34.139Z,20.00
2022-08-26T21:04:02.613Z,20.00
2022-08-26T21:06:29.761Z,20.00
2022-08-26T21:08:57.170Z,20.00
2022-08-26T21:11:25.506Z,20.00
2022-08-26T21:14:16.551Z,20.10
2022-08-26T21:16:40.134Z,20.10
2022-08-26T21:19:08.762Z,20.20
2022-08-26T21:21:35.688Z,20.20
2022-08-26T21:24:02.887Z,20.30
2022-08-26T21:26:29.712Z,20.30
2022-08-26T21:28:56.543Z,20.30
2022-08-26T21:31:24.319Z,20.30
2022-08-26T21:33:51.634Z,20.30
2022-08-26T21:36:18.833Z,20.30
2022-08-26T21:38:45.853Z,20.30
2022-08-26T21:41:15.257Z,20.40
2022-08-26T21:43:43.034Z,20.40
2022-08-26T21:46:17.007Z,20.40
2022-08-26T21:48:50.372Z,20.40
2022-08-26T21:51:19.159Z,20.40
2022-08-26T21:53:46.045Z,20.30
2022-08-26T21:56:16.120Z,20.30
2022-08-26T21:58:43.230Z,20.30
2022-08-26T22:01:14.821Z,20.30
2022-08-26T22:03:47.282Z,20.30
2022-08-26T22:06:18.772Z,20.30
2022-08-26T22:08:45.564Z,20.30
2022-08-26T22:11:13.269Z,20.30
2022-08-26T22:13:40.991Z,20.20
2022-08-26T22:16:08.268Z,20.20
2022-08-26T22:18:35.910Z,20.20
2022-08-26T22:21:04.430Z,20.20
2022-08-26T22:23:31.619Z,20.20
2022-08-26T22:25:59.143Z,20.20
2022-08-26T22:28:26.327Z,20.20
2022-08-26T22:30:53.125Z,20.20
2022-08-26T22:33:20.056Z,20.30
2022-08-26T22:35:47.772Z,20.30
2022-08-26T22:38:14.965Z,20.30
2022-08-26T22:40:46.568Z,20.30
2022-08-26T22:43:13.855Z,20.20
2022-08-26T22:45:42.822Z,20.20
2022-08-26T22:48:10.984Z,20.20
2022-08-26T22:50:38.167Z,20.30
2022-08-26T22:53:05.043Z,20.30
2022-08-26T22:55:31.823Z,20.30
2022-08-26T22:57:58.635Z,20.20
2022-08-26T23:00:32.057Z,20.20
2022-08-26T23:03:00.011Z,20.30
2022-08-26T23:05:27.258Z,20.20
2022-08-26T23:07:54.108Z,20.20
2022-08-26T23:10:20.979Z,20.20
2022-08-26T23:12:47.753Z,20.20
2022-08-26T23:15:15.005Z,20.20
2022-08-26T23:17:43.132Z,20.20
2022-08-26T23:20:11.638Z,20.10
2022-08-26T23:22:39.445Z,20.20
2022-08-26T23:25:08.334Z,20.20
2022-08-26T23:27:38.654Z,20.10
2022-08-26T23:30:06.877Z,20.10
2022-08-26T23:32:33.702Z,20.10
2022-08-26T23:35:00.579Z,20.20
2022-08-26T23:37:32.543Z,20.20
2022-08-26T23:39:59.510Z,20.10
2022-08-26T23:42:26.389Z,20.20
2022-08-26T23:44:55.781Z,20.20
2022-08-26T23:47:22.643Z,20.20
2022-08-26T23:49:49.463Z,20.20
2022-08-26T23:52:34.811Z,20.30
2022-08-26T23:55:01.629Z,20.30
2022-08-26T23:57:28.450Z,20.30
2022-08-26T23:59:55.227Z,20.20
